sensor_id;sensor_type;location;lat;lon;timestamp;P1;durP1;ratioP1;P2;durP2;ratioP2
63874;SDS011;51595;24.180;-110.296;2022-10-18T00:02:18;3.05;;;0.95;;
63874;SDS011;51595;24.180;-110.296;2022-10-18T00:04:45;1.38;;;0.80;;
63874;SDS011;51595;24.180;-110.296;2022-10-18T00:07:11;5.10;;;1.08;;
63874;SDS011;51595;24.180;-110.296;2022-10-18T00:09:38;2.75;;;0.98;;
63874;SDS011;51595;24.180;-110.296;2022-10-18T00:12:04;2.40;;;1.00;;
63874;SDS011;51595;24.180;-110.296;2022-10-18T00:14:31;2.92;;;0.80;;
63874;SDS011;51595;24.180;-110.296;2022-10-18T00:16:57;4.50;;;1.00;;
63874;SDS011;51595;24.180;-110.296;2022-10-18T00:19:24;2.83;;;0.93;;
63874;SDS011;51595;24.180;-110.296;2022-10-18T00:21:50;4.22;;;1.08;;
63874;SDS011;51595;24.180;-110.296;2022-10-18T00:24:16;5.20;;;1.45;;
63874;SDS011;51595;24.180;-110.296;2022-10-18T00:26:43;1.88;;;0.98;;
63874;SDS011;51595;24.180;-110.296;2022-10-18T00:29:11;2.13;;;1.00;;
63874;SDS011;51595;24.180;-110.296;2022-10-18T00:31:39;1.65;;;0.77;;
63874;SDS011;51595;24.180;-110.296;2022-10-18T00:34:08;2.78;;;0.88;;
63874;SDS011;51595;24.180;-110.296;2022-10-18T00:36:37;3.15;;;0.82;;
63874;SDS011;51595;24.180;-110.296;2022-10-18T00:39:04;3.47;;;1.17;;
63874;SDS011;51595;24.180;-110.296;2022-10-18T00:41:32;2.50;;;0.93;;
63874;SDS011;51595;24.180;-110.296;2022-10-18T00:44:59;1.33;;;0.90;;
63874;SDS011;51595;24.180;-110.296;2022-10-18T00:46:53;2.10;;;1.13;;
63874;SDS011;51595;24.180;-110.296;2022-10-18T00:49:28;2.20;;;1.08;;
63874;SDS011;51595;24.180;-110.296;2022-10-18T00:54:30;4.20;;;0.90;;
63874;SDS011;51595;24.180;-110.296;2022-10-18T00:56:59;2.15;;;0.98;;
63874;SDS011;51595;24.180;-110.296;2022-10-18T00:59:27;2.83;;;1.00;;
63874;SDS011;51595;24.180;-110.296;2022-10-18T01:01:53;9.90;;;1.23;;
63874;SDS011;51595;24.180;-110.296;2022-10-18T01:04:20;3.03;;;1.02;;
63874;SDS011;51595;24.180;-110.296;2022-10-18T01:18:10;3.42;;;1.20;;
63874;SDS011;51595;24.180;-110.296;2022-10-18T01:32:26;1.25;;;0.88;;
63874;SDS011;51595;24.180;-110.296;2022-10-18T01:34:57;1.40;;;0.80;;
63874;SDS011;51595;24.180;-110.296;2022-10-18T01:37:27;3.08;;;1.20;;
63874;SDS011;51595;24.180;-110.296;2022-10-18T01:39:56;2.35;;;1.00;;
63874;SDS011;51595;24.180;-110.296;2022-10-18T01:42:24;1.95;;;0.98;;
63874;SDS011;51595;24.180;-110.296;2022-10-18T01:44:51;3.55;;;0.82;;
63874;SDS011;51595;24.180;-110.296;2022-10-18T01:47:19;2.97;;;0.82;;
63874;SDS011;51595;24.180;-110.296;2022-10-18T01:49:47;4.90;;;0.90;;
63874;SDS011;51595;24.180;-110.296;2022-10-18T01:52:14;2.80;;;1.02;;
63874;SDS011;51595;24.180;-110.296;2022-10-18T01:54:46;1.60;;;0.77;;
63874;SDS011;51595;24.180;-110.296;2022-10-18T02:05:28;2.72;;;0.75;;
63874;SDS011;51595;24.180;-110.296;2022-10-18T02:11:04;2.85;;;0.90;;
63874;SDS011;51595;24.180;-110.296;2022-10-18T02:13:35;2.30;;;0.98;;
63874;SDS011;51595;24.180;-110.296;2022-10-18T02:16:08;2.40;;;0.93;;
63874;SDS011;51595;24.180;-110.296;2022-10-18T02:18:44;1.70;;;0.90;;
63874;SDS011;51595;24.180;-110.296;2022-10-18T02:21:19;1.77;;;0.70;;
63874;SDS011;51595;24.180;-110.296;2022-10-18T02:23:47;1.45;;;0.80;;
63874;SDS011;51595;24.180;-110.296;2022-10-18T02:26:14;3.00;;;1.20;;
63874;SDS011;51595;24.180;-110.296;2022-10-18T02:28:41;7.13;;;1.38;;
63874;SDS011;51595;24.180;-110.296;2022-10-18T02:31:14;1.95;;;1.02;;
63874;SDS011;51595;24.180;-110.296;2022-10-18T02:33:52;2.20;;;1.13;;
63874;SDS011;51595;24.180;-110.296;2022-10-18T02:36:23;4.50;;;1.27;;
63874;SDS011;51595;24.180;-110.296;2022-10-18T02:39:00;2.42;;;0.98;;
63874;SDS011;51595;24.180;-110.296;2022-10-18T02:41:30;2.55;;;1.05;;
63874;SDS011;51595;24.180;-110.296;2022-10-18T02:43:57;3.58;;;1.20;;
63874;SDS011;51595;24.180;-110.296;2022-10-18T02:46:24;2.83;;;0.95;;
63874;SDS011;51595;24.180;-110.296;2022-10-18T02:48:50;2.70;;;0.88;;
63874;SDS011;51595;24.180;-110.296;2022-10-18T02:51:17;1.27;;;0.80;;
63874;SDS011;51595;24.180;-110.296;2022-10-18T02:53:43;4.03;;;1.10;;
63874;SDS011;51595;24.180;-110.296;2022-10-18T02:56:09;3.08;;;1.20;;
63874;SDS011;51595;24.180;-110.296;2022-10-18T02:58:36;3.78;;;1.10;;
63874;SDS011;51595;24.180;-110.296;2022-10-18T03:01:02;6.28;;;1.10;;
63874;SDS011;51595;24.180;-110.296;2022-10-18T03:03:38;3.03;;;1.17;;
63874;SDS011;51595;24.180;-110.296;2022-10-18T03:06:05;1.95;;;0.90;;
63874;SDS011;51595;24.180;-110.296;2022-10-18T03:08:31;1.67;;;0.85;;
63874;SDS011;51595;24.180;-110.296;2022-10-18T03:10:57;3.03;;;0.93;;
63874;SDS011;51595;24.180;-110.296;2022-10-18T03:13:24;3.08;;;1.05;;
63874;SDS011;51595;24.180;-110.296;2022-10-18T03:15:50;2.90;;;0.90;;
63874;SDS011;51595;24.180;-110.296;2022-10-18T03:18:17;3.65;;;1.20;;
63874;SDS011;51595;24.180;-110.296;2022-10-18T03:20:43;2.50;;;1.13;;
63874;SDS011;51595;24.180;-110.296;2022-10-18T03:23:10;3.00;;;0.90;;
63874;SDS011;51595;24.180;-110.296;2022-10-18T03:25:36;2.35;;;0.88;;
63874;SDS011;51595;24.180;-110.296;2022-10-18T03:28:02;2.80;;;1.13;;
63874;SDS011;51595;24.180;-110.296;2022-10-18T03:30:29;1.98;;;1.02;;
63874;SDS011;51595;24.180;-110.296;2022-10-18T03:32:55;7.05;;;1.45;;
63874;SDS011;51595;24.180;-110.296;2022-10-18T03:35:22;2.20;;;0.90;;
63874;SDS011;51595;24.180;-110.296;2022-10-18T03:37:48;4.07;;;1.23;;
63874;SDS011;51595;24.180;-110.296;2022-10-18T03:40:15;2.40;;;1.10;;
63874;SDS011;51595;24.180;-110.296;2022-10-18T03:42:41;3.15;;;1.13;;
63874;SDS011;51595;24.180;-110.296;2022-10-18T03:45:08;4.00;;;1.33;;
63874;SDS011;51595;24.180;-110.296;2022-10-18T03:47:34;5.95;;;1.50;;
63874;SDS011;51595;24.180;-110.296;2022-10-18T03:50:01;7.45;;;1.50;;
63874;SDS011;51595;24.180;-110.296;2022-10-18T03:52:28;7.22;;;1.50;;
63874;SDS011;51595;24.180;-110.296;2022-10-18T03:54:54;3.47;;;1.20;;
63874;SDS011;51595;24.180;-110.296;2022-10-18T03:57:21;7.50;;;1.58;;
63874;SDS011;51595;24.180;-110.296;2022-10-18T03:59:47;6.28;;;1.65;;
63874;SDS011;51595;24.180;-110.296;2022-10-18T04:02:13;5.18;;;1.30;;
63874;SDS011;51595;24.180;-110.296;2022-10-18T04:04:40;4.90;;;1.17;;
63874;SDS011;51595;24.180;-110.296;2022-10-18T04:07:06;3.83;;;1.38;;
63874;SDS011;51595;24.180;-110.296;2022-10-18T04:09:33;5.70;;;1.40;;
63874;SDS011;51595;24.180;-110.296;2022-10-18T04:11:59;3.75;;;1.30;;
63874;SDS011;51595;24.180;-110.296;2022-10-18T04:14:26;3.35;;;1.20;;
63874;SDS011;51595;24.180;-110.296;2022-10-18T04:16:52;5.20;;;1.50;;
63874;SDS011;51595;24.180;-110.296;2022-10-18T04:19:18;7.45;;;1.48;;
63874;SDS011;51595;24.180;-110.296;2022-10-18T04:21:45;2.60;;;1.20;;
63874;SDS011;51595;24.180;-110.296;2022-10-18T04:24:11;6.78;;;1.45;;
63874;SDS011;51595;24.180;-110.296;2022-10-18T04:26:38;3.80;;;1.35;;
63874;SDS011;51595;24.180;-110.296;2022-10-18T04:29:04;2.20;;;1.10;;
63874;SDS011;51595;24.180;-110.296;2022-10-18T04:31:31;4.45;;;1.25;;
63874;SDS011;51595;24.180;-110.296;2022-10-18T04:33:57;2.60;;;1.30;;
63874;SDS011;51595;24.180;-110.296;2022-10-18T04:36:23;3.22;;;1.15;;
63874;SDS011;51595;24.180;-110.296;2022-10-18T04:38:50;6.32;;;1.08;;
63874;SDS011;51595;24.180;-110.296;2022-10-18T04:41:16;3.80;;;0.98;;
63874;SDS011;51595;24.180;-110.296;2022-10-18T04:43:43;3.67;;;0.98;;
63874;SDS011;51595;24.180;-110.296;2022-10-18T04:46:09;3.15;;;0.90;;
63874;SDS011;51595;24.180;-110.296;2022-10-18T04:48:36;5.03;;;1.20;;
63874;SDS011;51595;24.180;-110.296;2022-10-18T04:51:03;2.30;;;1.10;;
63874;SDS011;51595;24.180;-110.296;2022-10-18T04:53:30;5.20;;;1.23;;
63874;SDS011;51595;24.180;-110.296;2022-10-18T04:55:56;5.45;;;1.42;;
63874;SDS011;51595;24.180;-110.296;2022-10-18T04:58:23;3.00;;;1.10;;
63874;SDS011;51595;24.180;-110.296;2022-10-18T05:00:49;2.55;;;1.17;;
63874;SDS011;51595;24.180;-110.296;2022-10-18T05:03:16;4.47;;;1.17;;
63874;SDS011;51595;24.180;-110.296;2022-10-18T05:05:43;2.80;;;1.23;;
63874;SDS011;51595;24.180;-110.296;2022-10-18T05:08:10;5.53;;;1.75;;
63874;SDS011;51595;24.180;-110.296;2022-10-18T05:10:37;2.20;;;1.15;;
63874;SDS011;51595;24.180;-110.296;2022-10-18T05:13:03;2.10;;;1.10;;
63874;SDS011;51595;24.180;-110.296;2022-10-18T05:15:30;3.50;;;1.20;;
63874;SDS011;51595;24.180;-110.296;2022-10-18T05:17:56;2.80;;;1.10;;
63874;SDS011;51595;24.180;-110.296;2022-10-18T05:20:23;2.00;;;0.88;;
63874;SDS011;51595;24.180;-110.296;2022-10-18T05:22:49;2.83;;;0.95;;
63874;SDS011;51595;24.180;-110.296;2022-10-18T05:25:16;1.30;;;0.82;;
63874;SDS011;51595;24.180;-110.296;2022-10-18T05:27:42;3.80;;;1.20;;
63874;SDS011;51595;24.180;-110.296;2022-10-18T05:30:09;2.92;;;1.10;;
63874;SDS011;51595;24.180;-110.296;2022-10-18T05:32:35;2.08;;;1.25;;
63874;SDS011;51595;24.180;-110.296;2022-10-18T05:35:02;3.55;;;1.20;;
63874;SDS011;51595;24.180;-110.296;2022-10-18T05:37:29;2.70;;;0.90;;
63874;SDS011;51595;24.180;-110.296;2022-10-18T05:39:55;2.28;;;1.20;;
63874;SDS011;51595;24.180;-110.296;2022-10-18T05:42:22;5.05;;;1.10;;
63874;SDS011;51595;24.180;-110.296;2022-10-18T05:44:48;3.75;;;1.20;;
63874;SDS011;51595;24.180;-110.296;2022-10-18T05:47:14;1.95;;;0.98;;
63874;SDS011;51595;24.180;-110.296;2022-10-18T05:49:41;2.10;;;0.95;;
63874;SDS011;51595;24.180;-110.296;2022-10-18T05:52:07;2.00;;;1.23;;
63874;SDS011;51595;24.180;-110.296;2022-10-18T05:54:34;4.38;;;0.90;;
63874;SDS011;51595;24.180;-110.296;2022-10-18T05:57:00;2.00;;;0.77;;
63874;SDS011;51595;24.180;-110.296;2022-10-18T05:59:26;5.10;;;1.30;;
63874;SDS011;51595;24.180;-110.296;2022-10-18T06:01:53;2.70;;;1.23;;
63874;SDS011;51595;24.180;-110.296;2022-10-18T06:04:19;4.95;;;1.20;;
63874;SDS011;51595;24.180;-110.296;2022-10-18T06:06:46;2.05;;;1.15;;
63874;SDS011;51595;24.180;-110.296;2022-10-18T06:09:12;4.43;;;1.30;;
63874;SDS011;51595;24.180;-110.296;2022-10-18T06:11:39;4.43;;;1.63;;
63874;SDS011;51595;24.180;-110.296;2022-10-18T06:14:06;3.33;;;1.38;;
63874;SDS011;51595;24.180;-110.296;2022-10-18T06:16:32;2.25;;;1.10;;
63874;SDS011;51595;24.180;-110.296;2022-10-18T06:18:59;4.70;;;1.70;;
63874;SDS011;51595;24.180;-110.296;2022-10-18T06:21:25;4.25;;;1.55;;
63874;SDS011;51595;24.180;-110.296;2022-10-18T06:23:56;3.47;;;1.23;;
63874;SDS011;51595;24.180;-110.296;2022-10-18T06:26:23;35.78;;;3.28;;
63874;SDS011;51595;24.180;-110.296;2022-10-18T06:28:51;15.48;;;2.40;;
63874;SDS011;51595;24.180;-110.296;2022-10-18T06:31:18;5.75;;;1.95;;
63874;SDS011;51595;24.180;-110.296;2022-10-18T06:33:45;5.88;;;1.75;;
63874;SDS011;51595;24.180;-110.296;2022-10-18T06:36:19;9.73;;;1.88;;
63874;SDS011;51595;24.180;-110.296;2022-10-18T06:38:49;6.38;;;2.10;;
63874;SDS011;51595;24.180;-110.296;2022-10-18T06:41:16;12.10;;;2.45;;
63874;SDS011;51595;24.180;-110.296;2022-10-18T06:43:47;10.55;;;2.25;;
63874;SDS011;51595;24.180;-110.296;2022-10-18T06:46:14;6.03;;;1.88;;
63874;SDS011;51595;24.180;-110.296;2022-10-18T06:48:41;8.85;;;1.92;;
63874;SDS011;51595;24.180;-110.296;2022-10-18T06:51:08;11.75;;;1.73;;
63874;SDS011;51595;24.180;-110.296;2022-10-18T06:53:36;5.43;;;1.83;;
63874;SDS011;51595;24.180;-110.296;2022-10-18T06:56:04;8.73;;;1.60;;
63874;SDS011;51595;24.180;-110.296;2022-10-18T06:58:33;9.93;;;1.85;;
63874;SDS011;51595;24.180;-110.296;2022-10-18T07:01:10;9.48;;;1.75;;
63874;SDS011;51595;24.180;-110.296;2022-10-18T07:03:38;6.40;;;2.25;;
63874;SDS011;51595;24.180;-110.296;2022-10-18T07:06:05;4.20;;;1.58;;
63874;SDS011;51595;24.180;-110.296;2022-10-18T07:08:33;7.95;;;1.88;;
63874;SDS011;51595;24.180;-110.296;2022-10-18T07:11:00;9.45;;;1.70;;
63874;SDS011;51595;24.180;-110.296;2022-10-18T07:13:28;4.75;;;1.80;;
63874;SDS011;51595;24.180;-110.296;2022-10-18T07:15:59;6.10;;;1.77;;
63874;SDS011;51595;24.180;-110.296;2022-10-18T07:18:26;7.10;;;1.80;;
63874;SDS011;51595;24.180;-110.296;2022-10-18T07:20:53;9.85;;;1.90;;
63874;SDS011;51595;24.180;-110.296;2022-10-18T07:23:19;5.78;;;1.70;;
63874;SDS011;51595;24.180;-110.296;2022-10-18T07:25:48;6.43;;;1.77;;
63874;SDS011;51595;24.180;-110.296;2022-10-18T07:28:15;4.00;;;1.40;;
63874;SDS011;51595;24.180;-110.296;2022-10-18T07:30:41;12.25;;;2.15;;
63874;SDS011;51595;24.180;-110.296;2022-10-18T07:33:08;7.68;;;1.60;;
63874;SDS011;51595;24.180;-110.296;2022-10-18T07:35:34;4.10;;;1.85;;
63874;SDS011;51595;24.180;-110.296;2022-10-18T07:38:00;7.88;;;1.88;;
63874;SDS011;51595;24.180;-110.296;2022-10-18T07:40:27;7.95;;;1.60;;
63874;SDS011;51595;24.180;-110.296;2022-10-18T07:42:53;5.30;;;1.80;;
63874;SDS011;51595;24.180;-110.296;2022-10-18T07:45:20;6.47;;;1.60;;
63874;SDS011;51595;24.180;-110.296;2022-10-18T07:47:46;9.25;;;1.80;;
63874;SDS011;51595;24.180;-110.296;2022-10-18T07:50:12;8.52;;;2.10;;
63874;SDS011;51595;24.180;-110.296;2022-10-18T07:52:39;4.72;;;1.95;;
63874;SDS011;51595;24.180;-110.296;2022-10-18T07:55:05;3.83;;;1.65;;
63874;SDS011;51595;24.180;-110.296;2022-10-18T07:57:32;6.28;;;1.55;;
63874;SDS011;51595;24.180;-110.296;2022-10-18T07:59:58;6.50;;;1.40;;
63874;SDS011;51595;24.180;-110.296;2022-10-18T08:02:25;11.10;;;1.75;;
63874;SDS011;51595;24.180;-110.296;2022-10-18T08:04:51;7.57;;;1.48;;
63874;SDS011;51595;24.180;-110.296;2022-10-18T08:07:18;7.70;;;1.60;;
63874;SDS011;51595;24.180;-110.296;2022-10-18T08:09:44;6.50;;;1.80;;
63874;SDS011;51595;24.180;-110.296;2022-10-18T08:12:11;4.85;;;1.80;;
63874;SDS011;51595;24.180;-110.296;2022-10-18T08:14:39;6.55;;;1.50;;
63874;SDS011;51595;24.180;-110.296;2022-10-18T08:17:06;7.45;;;2.28;;
63874;SDS011;51595;24.180;-110.296;2022-10-18T08:19:33;6.70;;;1.50;;
63874;SDS011;51595;24.180;-110.296;2022-10-18T08:21:59;4.82;;;1.40;;
63874;SDS011;51595;24.180;-110.296;2022-10-18T08:24:26;5.00;;;1.30;;
63874;SDS011;51595;24.180;-110.296;2022-10-18T08:26:52;6.10;;;1.60;;
63874;SDS011;51595;24.180;-110.296;2022-10-18T08:29:18;4.20;;;1.55;;
63874;SDS011;51595;24.180;-110.296;2022-10-18T08:31:45;5.85;;;1.55;;
63874;SDS011;51595;24.180;-110.296;2022-10-18T08:34:13;6.53;;;1.83;;
63874;SDS011;51595;24.180;-110.296;2022-10-18T08:36:40;4.70;;;1.60;;
63874;SDS011;51595;24.180;-110.296;2022-10-18T08:39:06;5.70;;;1.55;;
63874;SDS011;51595;24.180;-110.296;2022-10-18T08:44:27;5.43;;;1.55;;
63874;SDS011;51595;24.180;-110.296;2022-10-18T08:47:01;7.63;;;1.40;;
63874;SDS011;51595;24.180;-110.296;2022-10-18T08:49:35;8.50;;;1.60;;
63874;SDS011;51595;24.180;-110.296;2022-10-18T08:52:30;5.28;;;1.55;;
63874;SDS011;51595;24.180;-110.296;2022-10-18T08:55:31;5.38;;;1.50;;
63874;SDS011;51595;24.180;-110.296;2022-10-18T09:20:16;6.22;;;1.33;;
63874;SDS011;51595;24.180;-110.296;2022-10-18T09:23:04;7.85;;;1.58;;
63874;SDS011;51595;24.180;-110.296;2022-10-18T09:25:49;6.90;;;1.40;;
63874;SDS011;51595;24.180;-110.296;2022-10-18T09:33:49;3.55;;;1.40;;
63874;SDS011;51595;24.180;-110.296;2022-10-18T09:36:37;7.65;;;1.40;;
63874;SDS011;51595;24.180;-110.296;2022-10-18T09:39:14;5.05;;;1.80;;
63874;SDS011;51595;24.180;-110.296;2022-10-18T09:44:24;7.75;;;1.42;;
63874;SDS011;51595;24.180;-110.296;2022-10-18T09:46:59;8.90;;;1.70;;
63874;SDS011;51595;24.180;-110.296;2022-10-18T09:49:35;5.27;;;1.90;;
63874;SDS011;51595;24.180;-110.296;2022-10-18T09:52:40;3.78;;;1.30;;
63874;SDS011;51595;24.180;-110.296;2022-10-18T09:55:27;7.53;;;1.70;;
63874;SDS011;51595;24.180;-110.296;2022-10-18T09:57:59;8.93;;;2.03;;
63874;SDS011;51595;24.180;-110.296;2022-10-18T10:00:34;4.47;;;1.48;;
63874;SDS011;51595;24.180;-110.296;2022-10-18T10:03:10;6.15;;;1.60;;
63874;SDS011;51595;24.180;-110.296;2022-10-18T10:05:40;7.43;;;1.77;;
63874;SDS011;51595;24.180;-110.296;2022-10-18T10:08:07;5.15;;;1.55;;
63874;SDS011;51595;24.180;-110.296;2022-10-18T10:10:34;4.47;;;1.38;;
63874;SDS011;51595;24.180;-110.296;2022-10-18T10:15:47;4.63;;;1.65;;
63874;SDS011;51595;24.180;-110.296;2022-10-18T10:18:22;8.60;;;1.52;;
63874;SDS011;51595;24.180;-110.296;2022-10-18T10:20:51;5.63;;;1.60;;
63874;SDS011;51595;24.180;-110.296;2022-10-18T10:23:27;5.97;;;1.50;;
63874;SDS011;51595;24.180;-110.296;2022-10-18T10:26:04;3.08;;;1.30;;
63874;SDS011;51595;24.180;-110.296;2022-10-18T10:28:45;5.63;;;1.67;;
63874;SDS011;51595;24.180;-110.296;2022-10-18T10:34:00;5.45;;;1.45;;
63874;SDS011;51595;24.180;-110.296;2022-10-18T10:36:29;5.60;;;1.48;;
63874;SDS011;51595;24.180;-110.296;2022-10-18T10:41:30;5.25;;;2.05;;
63874;SDS011;51595;24.180;-110.296;2022-10-18T10:43:58;9.18;;;1.85;;
63874;SDS011;51595;24.180;-110.296;2022-10-18T10:46:35;5.97;;;1.48;;
63874;SDS011;51595;24.180;-110.296;2022-10-18T10:49:02;6.35;;;1.77;;
63874;SDS011;51595;24.180;-110.296;2022-10-18T10:59:20;7.45;;;1.55;;
63874;SDS011;51595;24.180;-110.296;2022-10-18T11:02:10;4.60;;;1.90;;
63874;SDS011;51595;24.180;-110.296;2022-10-18T11:04:42;6.30;;;2.03;;
63874;SDS011;51595;24.180;-110.296;2022-10-18T11:20:27;5.45;;;1.80;;
63874;SDS011;51595;24.180;-110.296;2022-10-18T11:23:05;6.22;;;2.38;;
63874;SDS011;51595;24.180;-110.296;2022-10-18T11:25:47;7.47;;;1.70;;
63874;SDS011;51595;24.180;-110.296;2022-10-18T11:28:23;6.15;;;1.77;;
63874;SDS011;51595;24.180;-110.296;2022-10-18T11:31:11;5.55;;;1.40;;
63874;SDS011;51595;24.180;-110.296;2022-10-18T11:39:12;5.15;;;1.48;;
63874;SDS011;51595;24.180;-110.296;2022-10-18T11:44:27;8.85;;;1.92;;
63874;SDS011;51595;24.180;-110.296;2022-10-18T12:03:10;3.75;;;1.50;;
63874;SDS011;51595;24.180;-110.296;2022-10-18T12:05:57;7.40;;;1.98;;
63874;SDS011;51595;24.180;-110.296;2022-10-18T12:08:35;6.18;;;1.35;;
63874;SDS011;51595;24.180;-110.296;2022-10-18T12:11:18;5.28;;;1.80;;
63874;SDS011;51595;24.180;-110.296;2022-10-18T12:16:19;4.28;;;1.63;;
63874;SDS011;51595;24.180;-110.296;2022-10-18T12:18:50;8.25;;;1.42;;
63874;SDS011;51595;24.180;-110.296;2022-10-18T12:21:22;4.40;;;1.50;;
63874;SDS011;51595;24.180;-110.296;2022-10-18T12:23:53;6.30;;;1.45;;
63874;SDS011;51595;24.180;-110.296;2022-10-18T12:26:33;1.52;;;1.00;;
63874;SDS011;51595;24.180;-110.296;2022-10-18T12:29:04;8.57;;;1.70;;
63874;SDS011;51595;24.180;-110.296;2022-10-18T12:31:52;3.60;;;1.40;;
63874;SDS011;51595;24.180;-110.296;2022-10-18T12:34:44;3.90;;;1.40;;
63874;SDS011;51595;24.180;-110.296;2022-10-18T12:42:51;4.63;;;1.30;;
63874;SDS011;51595;24.180;-110.296;2022-10-18T12:47:51;3.55;;;1.25;;
63874;SDS011;51595;24.180;-110.296;2022-10-18T12:55:38;4.30;;;1.52;;
63874;SDS011;51595;24.180;-110.296;2022-10-18T13:08:32;6.32;;;1.70;;
63874;SDS011;51595;24.180;-110.296;2022-10-18T13:41:22;5.13;;;1.63;;
63874;SDS011;51595;24.180;-110.296;2022-10-18T13:44:08;6.38;;;1.75;;
63874;SDS011;51595;24.180;-110.296;2022-10-18T13:57:17;9.07;;;1.70;;
63874;SDS011;51595;24.180;-110.296;2022-10-18T14:02:51;4.13;;;1.45;;
63874;SDS011;51595;24.180;-110.296;2022-10-18T14:05:44;5.65;;;1.50;;
63874;SDS011;51595;24.180;-110.296;2022-10-18T14:08:33;5.60;;;1.60;;
63874;SDS011;51595;24.180;-110.296;2022-10-18T14:11:04;5.22;;;1.58;;
63874;SDS011;51595;24.180;-110.296;2022-10-18T14:16:33;5.25;;;2.00;;
63874;SDS011;51595;24.180;-110.296;2022-10-18T14:19:13;6.20;;;1.70;;
63874;SDS011;51595;24.180;-110.296;2022-10-18T14:21:52;7.07;;;1.80;;
63874;SDS011;51595;24.180;-110.296;2022-10-18T14:24:30;4.50;;;1.45;;
63874;SDS011;51595;24.180;-110.296;2022-10-18T14:27:11;5.97;;;1.40;;
63874;SDS011;51595;24.180;-110.296;2022-10-18T14:29:41;5.85;;;1.50;;
63874;SDS011;51595;24.180;-110.296;2022-10-18T14:32:27;5.80;;;1.77;;
63874;SDS011;51595;24.180;-110.296;2022-10-18T14:34:56;6.47;;;1.75;;
63874;SDS011;51595;24.180;-110.296;2022-10-18T14:39:55;5.47;;;1.52;;
63874;SDS011;51595;24.180;-110.296;2022-10-18T14:42:22;11.23;;;1.65;;
63874;SDS011;51595;24.180;-110.296;2022-10-18T14:44:50;6.47;;;1.23;;
63874;SDS011;51595;24.180;-110.296;2022-10-18T14:49:51;7.15;;;1.52;;
63874;SDS011;51595;24.180;-110.296;2022-10-18T14:52:26;8.00;;;1.83;;
63874;SDS011;51595;24.180;-110.296;2022-10-18T14:54:56;2.88;;;1.35;;
63874;SDS011;51595;24.180;-110.296;2022-10-18T14:57:33;5.22;;;1.10;;
63874;SDS011;51595;24.180;-110.296;2022-10-18T15:00:06;5.90;;;1.27;;
63874;SDS011;51595;24.180;-110.296;2022-10-18T15:02:41;8.70;;;1.45;;
63874;SDS011;51595;24.180;-110.296;2022-10-18T15:05:13;5.25;;;1.20;;
63874;SDS011;51595;24.180;-110.296;2022-10-18T15:07:47;27.88;;;3.20;;
63874;SDS011;51595;24.180;-110.296;2022-10-18T15:10:15;4.45;;;1.25;;
63874;SDS011;51595;24.180;-110.296;2022-10-18T15:12:45;11.27;;;1.58;;
63874;SDS011;51595;24.180;-110.296;2022-10-18T15:15:23;4.38;;;1.05;;
63874;SDS011;51595;24.180;-110.296;2022-10-18T15:17:52;8.50;;;1.85;;
63874;SDS011;51595;24.180;-110.296;2022-10-18T15:20:32;10.23;;;1.77;;
63874;SDS011;51595;24.180;-110.296;2022-10-18T15:23:23;15.50;;;2.15;;
63874;SDS011;51595;24.180;-110.296;2022-10-18T15:25:51;19.10;;;2.08;;
63874;SDS011;51595;24.180;-110.296;2022-10-18T15:28:29;7.63;;;2.75;;
63874;SDS011;51595;24.180;-110.296;2022-10-18T15:31:01;20.63;;;3.28;;
63874;SDS011;51595;24.180;-110.296;2022-10-18T15:33:29;25.70;;;2.78;;
63874;SDS011;51595;24.180;-110.296;2022-10-18T15:36:07;34.97;;;5.55;;
63874;SDS011;51595;24.180;-110.296;2022-10-18T15:38:35;47.17;;;5.32;;
63874;SDS011;51595;24.180;-110.296;2022-10-18T15:41:34;47.05;;;5.80;;
63874;SDS011;51595;24.180;-110.296;2022-10-18T15:44:18;25.42;;;4.57;;
63874;SDS011;51595;24.180;-110.296;2022-10-18T15:46:51;34.25;;;4.57;;
63874;SDS011;51595;24.180;-110.296;2022-10-18T16:01:31;25.23;;;3.60;;
63874;SDS011;51595;24.180;-110.296;2022-10-18T16:04:06;33.78;;;4.18;;
63874;SDS011;51595;24.180;-110.296;2022-10-18T16:06:38;20.00;;;3.65;;
63874;SDS011;51595;24.180;-110.296;2022-10-18T16:09:04;19.42;;;3.65;;
63874;SDS011;51595;24.180;-110.296;2022-10-18T16:11:31;15.43;;;3.40;;
63874;SDS011;51595;24.180;-110.296;2022-10-18T16:13:57;20.27;;;2.92;;
63874;SDS011;51595;24.180;-110.296;2022-10-18T16:16:25;12.95;;;3.33;;
63874;SDS011;51595;24.180;-110.296;2022-10-18T16:18:52;15.68;;;3.05;;
63874;SDS011;51595;24.180;-110.296;2022-10-18T16:21:21;24.92;;;3.00;;
63874;SDS011;51595;24.180;-110.296;2022-10-18T16:23:48;17.15;;;2.40;;
63874;SDS011;51595;24.180;-110.296;2022-10-18T16:26:15;18.85;;;3.42;;
63874;SDS011;51595;24.180;-110.296;2022-10-18T16:28:42;12.32;;;2.33;;
63874;SDS011;51595;24.180;-110.296;2022-10-18T16:31:20;13.68;;;2.28;;
63874;SDS011;51595;24.180;-110.296;2022-10-18T16:33:48;12.23;;;2.10;;
63874;SDS011;51595;24.180;-110.296;2022-10-18T16:36:17;16.20;;;2.72;;
63874;SDS011;51595;24.180;-110.296;2022-10-18T16:38:45;16.90;;;2.55;;
63874;SDS011;51595;24.180;-110.296;2022-10-18T16:41:12;13.10;;;1.83;;
63874;SDS011;51595;24.180;-110.296;2022-10-18T16:43:40;12.38;;;2.20;;
63874;SDS011;51595;24.180;-110.296;2022-10-18T16:46:14;9.85;;;1.83;;
63874;SDS011;51595;24.180;-110.296;2022-10-18T16:48:43;7.93;;;2.17;;
63874;SDS011;51595;24.180;-110.296;2022-10-18T16:51:11;17.13;;;2.20;;
63874;SDS011;51595;24.180;-110.296;2022-10-18T16:53:37;10.35;;;1.73;;
63874;SDS011;51595;24.180;-110.296;2022-10-18T16:56:04;9.10;;;1.70;;
63874;SDS011;51595;24.180;-110.296;2022-10-18T16:58:36;13.32;;;2.08;;
63874;SDS011;51595;24.180;-110.296;2022-10-18T17:01:02;8.10;;;1.67;;
63874;SDS011;51595;24.180;-110.296;2022-10-18T17:03:29;4.32;;;1.45;;
63874;SDS011;51595;24.180;-110.296;2022-10-18T17:05:55;5.75;;;1.67;;
63874;SDS011;51595;24.180;-110.296;2022-10-18T17:08:23;6.93;;;1.63;;
63874;SDS011;51595;24.180;-110.296;2022-10-18T17:10:51;9.40;;;1.73;;
63874;SDS011;51595;24.180;-110.296;2022-10-18T17:13:20;4.53;;;1.75;;
63874;SDS011;51595;24.180;-110.296;2022-10-18T17:15:48;13.43;;;1.63;;
63874;SDS011;51595;24.180;-110.296;2022-10-18T17:18:16;8.73;;;2.28;;
63874;SDS011;51595;24.180;-110.296;2022-10-18T17:20:46;7.05;;;1.60;;
63874;SDS011;51595;24.180;-110.296;2022-10-18T17:23:13;7.93;;;1.25;;
63874;SDS011;51595;24.180;-110.296;2022-10-18T17:25:40;7.68;;;1.40;;
63874;SDS011;51595;24.180;-110.296;2022-10-18T17:28:12;5.85;;;1.20;;
63874;SDS011;51595;24.180;-110.296;2022-10-18T17:30:40;11.18;;;1.95;;
63874;SDS011;51595;24.180;-110.296;2022-10-18T17:33:07;14.18;;;1.77;;
63874;SDS011;51595;24.180;-110.296;2022-10-18T17:35:34;4.00;;;1.50;;
63874;SDS011;51595;24.180;-110.296;2022-10-18T17:38:01;4.55;;;1.60;;
63874;SDS011;51595;24.180;-110.296;2022-10-18T17:40:29;3.47;;;1.52;;
63874;SDS011;51595;24.180;-110.296;2022-10-18T17:42:55;8.35;;;1.50;;
63874;SDS011;51595;24.180;-110.296;2022-10-18T17:45:22;4.65;;;1.50;;
63874;SDS011;51595;24.180;-110.296;2022-10-18T17:47:49;3.25;;;1.40;;
63874;SDS011;51595;24.180;-110.296;2022-10-18T17:50:15;10.10;;;1.77;;
63874;SDS011;51595;24.180;-110.296;2022-10-18T17:52:42;5.40;;;1.42;;
63874;SDS011;51595;24.180;-110.296;2022-10-18T17:55:13;7.35;;;1.63;;
63874;SDS011;51595;24.180;-110.296;2022-10-18T17:57:40;6.78;;;1.60;;